Terminal Aerodrome Forecast
Issued by NWS

Home | Current Version | Previous Version | Text Only | Print | Product List | Glossary Off
Versions: 1 2 3 4 5 6 7 8 9 10 11 12 13 14

000
FTUS43 KMPX 011739
TAFRWF
TAF
KRWF 011739Z 0118/0218 23005KT P6SM SCT080
     FM012000 31009KT P6SM FEW050
     FM020300 VRB03KT P6SM SKC
     FM021000 19006KT P6SM SKC
     FM021700 19013G20KT P6SM SKC=

USA.gov is the U.S. government's official web portal to all federal, state and local government web resources and services.